x

Cape Elizabeth- 45nm Nw Of Aberdeen, Wa (46041) Wave Buoy

5:50pm - Sat 17th Feb 2018 All times are PST. -8 hours from GMT.

  • Sig Wave height 18.7ft
  • Swell Direction
  • Peak Period 11s
  • Average Period 9s
  • Wind
    34mph, 43mph gusts
  • Sea Temp 47°f
  • Air Temp 44°f
  • Sea Pressure 1004.7mb
  • Cape Elizabeth- 45nm Nw Of Aberdeen, Wa
  • Cape Elizabeth- 45nm Nw Of Aberdeen, Wa

More Historic Weather Station data

Upgrade to MSW Pro to gain access to the past 30 days of data for over 8000 Wavebouys and Weather Stations around the globe.

Join

Comparision Forecast

View Surf forecast
   
Sat 02/17 5:50pm 18.5ft 11s 9s 34 43 mph 1004.7mb 47f 44f
4:50pm 16ft 11s 8s 29 36 mph 1004.1mb 47f 46f
3:50pm 16ft 11s 8s 34 40 mph 1003.3mb 47f 46f
2:50pm 15.5ft 10s 8s 29 36 mph 1003.6mb 47f 45f
1:50pm 17.5ft 10s 8s 29 36 mph 1004.1mb 47f 46f
12:50pm 15.5ft 9s 7s 27 36 mph 1004.7mb 47f 46f
11:50am 15ft 8s 7s 29 38 mph 1005.2mb 47f 46f
10:50am 15ft 8s 7s 34 40 mph 1005.1mb 47f 47f
9:50am 12ft 7s 7s 31 40 mph 1005mb 47f 47f
8:50am 10ft 9s 6s 29 34 mph 1005.4mb 47f 47f
7:50am 9.5ft 14s 6s 34 38 mph 1006.5mb 47f 47f
6:50am 9ft 14s 7s 25 29 mph 1007.8mb 47f 48f
5:50am 7.5ft 14s 7s 20 25 mph 1009.9mb 47f 47f
4:50am 7.5ft 14s 7s 18 20 mph 1012.2mb 47f 46f
3:50am 8ft 15s 7s 18 20 mph 1014.7mb 47f 46f
2:50am 7ft 9s 7s 18 20 mph 1014.8mb 47f 46f
1:50am 7ft 15s 7s 16 18 mph 1017.4mb 47f 46f
12:50am 7ft 16s 7s 13 18 mph 1018.7mb 47f 46f
Fri 02/16 11:50pm 8ft 16s 8s 7 13 mph 1019.8mb 47f 46f
10:50pm 9ft 9s 8s 4 7 mph 1020.6mb 47f 45f
9:50pm 7ft 8s 7s 2 2 mph 1021.4mb 47f 45f
8:50pm 8ft 8s 7s 2 4 mph 1021.4mb 47f 45f
7:50pm 7.5ft 16s 7s 7 11 mph 1022mb 47f 46f
6:50pm 7.5ft 16s 7s 11 13 mph 1022.6mb 47f 47f
5:50pm 7ft 10s 7s 11 13 mph 1021.9mb 47f 47f
4:50pm 7.5ft 10s 7s 9 11 mph 1021.6mb 47f 47f
3:50pm 7ft 9s 7s 9 13 mph 1021.7mb 47f 47f
2:50pm 7ft 9s 7s 13 16 mph 1021.2mb 47f 47f
1:50pm 7ft 7s 7s 11 13 mph 1021.2mb 48f 47f
12:50pm 6.5ft 11s 6s 11 13 mph 1021.5mb 48f 48f
11:50am 6ft 9s 6s 13 16 mph 1021.9mb 48f 47f
10:50am 6ft 8s 6s 16 20 mph 1021.9mb 48f 48f
9:50am 6ft 10s 6s 20 22 mph 1022.2mb 48f 47f
8:50am 6ft 11s 6s 16 20 mph 1022.6mb 48f 47f
7:50am 6ft 9s 6s 16 18 mph 1023mb 48f 46f
6:50am 6ft 11s 6s 16 20 mph 1023.6mb 48f 46f
5:50am 6ft 11s 6s 16 18 mph 1024mb 48f 45f
4:50am 5.5ft 11s 6s 18 20 mph 1024.4mb 48f 45f
3:50am 6ft 11s 6s 18 20 mph 1025mb 48f 45f
2:50am 6ft 11s 7s 16 20 mph 1026.1mb 48f 45f
1:50am 6ft 11s 7s 13 16 mph 1026.7mb 48f 45f
12:50am 6.5ft 11s 7s 13 16 mph 1027.3mb 48f 46f
Thu 02/15 11:50pm 7ft 11s 7s 16 18 mph 1027.9mb 48f 46f
10:50pm 7ft 11s 7s 11 16 mph 1028.7mb 48f 46f
9:50pm 7ft 11s 8s 13 18 mph 1029.3mb 48f 44f
8:50pm 8ft 11s 8s 4 7 mph 1029.5mb 48f 44f
7:50pm 7ft 12s  -  7 11 mph 1029.7mb 48f 45f
6:50pm 7.5ft 12s  -   -  2 mph 1030mb 48f 46f
5:50pm 8.5ft 11s 8s 4 7 mph 1030.1mb 48f 45f
4:50pm 8ft 11s 8s 9 11 mph 1029.6mb 48f 46f
3:50pm 8.5ft 12s 8s 9 13 mph 1029.9mb 48f 45f
2:50pm 9ft 13s 8s 11 13 mph 1029.5mb 48f 46f
1:50pm 9ft 11s 8s 13 16 mph 1029.7mb 48f 46f
12:50pm 10ft 12s 8s 13 18 mph 1029.9mb 47f 46f
11:50am 9.5ft 11s 8s 13 18 mph 1030mb 47f 46f
10:50am 9ft 11s 8s 11 13 mph 1029.7mb 47f 46f
9:50am 9ft 10s 7s 9 11 mph 1029.5mb 47f 46f
8:50am 10ft 11s 8s 9 13 mph 1029.1mb 47f 46f
7:50am 10ft 11s 8s 9 11 mph 1028.7mb 47f 46f
6:50am 10ft 11s 8s 9 13 mph 1028mb 47f 46f
5:50am 10.5ft 11s 8s 11 13 mph 1027.2mb 47f 46f
4:50am 12ft 12s 8s 13 18 mph 1026.7mb 47f 46f
3:50am 12ft 11s 8s 16 18 mph 1026.3mb 47f 46f
2:50am 10.5ft 11s 8s 18 22 mph 1026mb 47f 46f
1:50am 11ft 11s 8s 20 25 mph 1025.7mb 47f 46f
12:50am 10ft 12s 7s 16 20 mph 1025.1mb 47f 46f
Wed 02/14 11:50pm 11ft 10s 8s 20 25 mph 1024.8mb 47f 47f
10:50pm 9.5ft 10s 7s 18 22 mph 1024.1mb 48f 46f
9:50pm 10ft 10s 7s 16 20 mph 1023.5mb 48f 47f
8:50pm 9.5ft 10s 7s 18 20 mph 1023.1mb 48f 47f
7:50pm 9ft 9s 7s 18 22 mph 1022.8mb 48f 47f
6:50pm 10ft 10s 7s 18 22 mph 1022.4mb 48f 47f
5:50pm 9.5ft 9s 7s 18 20 mph 1021.5mb 49f 46f
4:50pm 10ft 10s 7s 16 20 mph 1020.7mb 49f 46f
3:50pm 10ft 10s 7s 18 20 mph 1020.2mb 49f 46f
2:50pm 9ft 9s 7s 18 22 mph 1019.4mb 49f 46f
1:50pm 10ft 8s 7s 18 22 mph 1018.8mb 49f 46f
12:50pm 9ft 9s 7s 20 25 mph 1018.4mb 48f 46f
11:50am 9.5ft 10s 7s 20 25 mph 1018.1mb 48f 46f
10:50am 9ft 8s 7s 20 25 mph 1017.7mb 48f 46f
9:50am 10ft 8s 7s 20 25 mph 1016.8mb 48f 46f
8:50am 11ft 8s 7s 22 27 mph 1016mb 48f 46f
7:50am 11ft 8s 7s 25 27 mph 1015.4mb 48f 46f
6:50am 10ft 7s 7s 22 29 mph 1014.9mb 48f 46f
5:50am 8ft 15s 6s 25 29 mph 1014.5mb 48f 46f
4:50am 7ft 16s 6s 25 29 mph 1014.3mb 48f 47f
3:50am 6ft 16s 5s 22 27 mph 1014.2mb 48f 47f
2:50am 6.5ft 16s 7s 22 27 mph 1014.2mb 48f 47f